Moore, Idaho
Current Conditions -  °F | °C
As of 3:47 PM on Wednesday 17 Dec 2014 (Local Time) from KSUN Reporting Station
Scattered Clouds Scattered Clouds  
Wind Chill: 29°   Ceiling: Unl
Heat Index: 34°   Visibility: 10mi
Dew Point: 25°   Wind: 6mph
Humidity: 70%   Direction: 270°W
Pressure: 29.96"   Gusts: NA
Location:  43.74°N, 113.37°W
Report Text: KSUN 172247Z 27005KT 10SM SCT080 SCT180 01/M04 A2996
Loading
Personal Weather Stations






























Interactive Weather Map New forecast layout! Learn more

10-Day Weather Forecast

Advertisements
Track Severe Weather on mobile